Salten — LMFM — position and weather

sailwx.info

Track history (hours):
 
Tides and Currents Weather Stations Pressure Air Temp Water Temp Dewpoint Dewpoint Depression Visibility Wind Speed Wind Dir Waves Ship Positions

Salten

Last reported at 2016-Feb-14 20:15 UTC. Time now 2016-Feb-14 21:08 UTC.
Position N 67°36' E 014°42'.

Length 41 m; draft 2 m.

Type: High speed craft. MMSI: 259387000.

Date/timePositionNaut miles runAvg speedWind from/ knotsBaromVisibWave heightAir tempDewpointWater temp
2016-Feb-14 20:15N 67°36' E 014°42'2028.6
2016-Feb-14 19:33N 67°17' E 014°22'0 0.0
2016-Feb-14 18:33N 67°17' E 014°22'7 0.3
2016-Feb-13 16:33N 67°24' E 014°31'7 7.4
2016-Feb-13 15:33N 67°17' E 014°22'0 0.0
2016-Feb-13 14:33N 67°17' E 014°22'0 0.0
2016-Feb-13 13:33N 67°17' E 014°22'0 0.0
2016-Feb-13 12:33N 67°17' E 014°22'0 0.0
2016-Feb-13 11:33N 67°17' E 014°22'1211.9
2016-Feb-13 10:31N 67°08' E 014°02'4414.5
2016-Feb-13 07:28N 66°31' E 013°00'27 1.8
2016-Feb-12 16:24N 66°54' E 013°31'1720.2
2016-Feb-12 15:34N 67°08' E 013°58'1313.3
2016-Feb-12 14:33N 67°17' E 014°22'0 0.0
2016-Feb-12 13:33N 67°17' E 014°22'0 0.0
2016-Feb-12 12:33N 67°17' E 014°22'0 0.0
2016-Feb-12 11:34N 67°17' E 014°22'1212.5
2016-Feb-12 10:33N 67°08' E 013°60'4414.6
2016-Feb-12 07:31N 66°31' E 013°00'27 1.8
2016-Feb-11 16:20N 66°55' E 013°30'1822.6
2016-Feb-11 15:33N 67°07' E 014°02'1212.4
2016-Feb-11 14:33N 67°17' E 014°22'0 0.0
2016-Feb-11 13:33N 67°17' E 014°22'0 0.0
2016-Feb-11 12:33N 67°17' E 014°22'0 0.0
2016-Feb-11 11:33N 67°17' E 014°22'1211.9
2016-Feb-11 10:33N 67°09' E 014°00'4715.3
2016-Feb-11 07:29N 66°29' E 012°58'29 1.9
2016-Feb-10 16:18N 66°55' E 013°30'1520.4
2016-Feb-10 15:34N 67°06' E 013°56'1515.2
2016-Feb-10 14:33N 67°17' E 014°22'0 0.0
2016-Feb-10 13:33N 67°17' E 014°22'0 0.0
2016-Feb-10 12:33N 67°17' E 014°22'0 0.0
2016-Feb-10 11:33N 67°17' E 014°22'0 0.0
2016-Feb-10 10:33N 67°17' E 014°22'0 0.0
2016-Feb-10 09:33N 67°17' E 014°22'8 8.4
2016-Feb-10 08:34N 67°25' E 014°31'1 0.1
2016-Feb-09 16:34N 67°23' E 014°30'7 7.1
2016-Feb-09 15:34N 67°17' E 014°22'0 0.0
2016-Feb-09 14:34N 67°17' E 014°22'0 0.0
2016-Feb-09 13:33N 67°17' E 014°22'0 0.0
2016-Feb-09 12:33N 67°17' E 014°22'0 0.0
2016-Feb-09 11:34N 67°17' E 014°22'7 7.3
2016-Feb-09 10:34N 67°12' E 014°09'4916.2
2016-Feb-09 07:32N 66°32' E 012°58'9 0.7
2016-Feb-08 19:09N 66°24' E 012°49'3511.5
2016-Feb-08 16:08N 66°54' E 013°32'1526.1
2016-Feb-08 15:34N 67°05' E 013°56'1515.4
2016-Feb-08 14:33N 67°17' E 014°22'0 0.0
2016-Feb-08 13:33N 67°17' E 014°22'0 0.0
2016-Feb-08 12:33N 67°17' E 014°22'0 0.0
2016-Feb-08 11:33N 67°17' E 014°22'7 6.6
2016-Feb-08 10:34N 67°13' E 014°10'5316.3
2016-Feb-08 07:19N 66°28' E 012°57'8 0.5
2016-Feb-07 16:14N 66°21' E 012°51'3713.2
2016-Feb-07 13:23N 66°55' E 013°30'1720.5
2016-Feb-07 12:33N 67°08' E 013°58'1312.9
2016-Feb-07 11:33N 67°17' E 014°22'0 0.0
2016-Feb-07 10:33N 67°17' E 014°22'0 0.0
2016-Feb-07 09:33N 67°17' E 014°22'0 0.0
2016-Feb-07 08:33N 67°17' E 014°22'0 0.0
2016-Feb-07 07:33N 67°17' E 014°22'0 0.0
2016-Feb-07 06:33N 67°17' E 014°22'0 0.0
2016-Feb-07 05:33N 67°17' E 014°22'0 0.0
2016-Feb-07 04:33N 67°17' E 014°22'0 0.0
2016-Feb-07 03:33N 67°17' E 014°22'0 0.0
2016-Feb-07 02:33N 67°17' E 014°22'0 0.0
2016-Feb-07 01:33N 67°17' E 014°22'0 0.0
2016-Feb-07 00:33N 67°17' E 014°22'0 0.0
2016-Feb-06 23:33N 67°17' E 014°22'0 0.0
2016-Feb-06 22:33N 67°17' E 014°22'0 0.0
2016-Feb-06 21:33N 67°17' E 014°22'0 0.0
2016-Feb-06 20:33N 67°17' E 014°22'0 0.0
2016-Feb-06 19:33N 67°17' E 014°22'0 0.0
2016-Feb-06 18:33N 67°17' E 014°22'0 0.0
2016-Feb-06 17:33N 67°17' E 014°22'0 0.0
2016-Feb-06 16:33N 67°17' E 014°22'0 0.0
2016-Feb-06 15:33N 67°17' E 014°22'0 0.0
2016-Feb-06 14:33N 67°17' E 014°22'0 0.0
2016-Feb-06 13:33N 67°17' E 014°22'0 0.0
2016-Feb-06 12:33N 67°17' E 014°22'0 0.0
2016-Feb-06 11:33N 67°17' E 014°22'0 0.0
2016-Feb-06 10:33N 67°17' E 014°22'0 0.0
2016-Feb-06 09:34N 67°17' E 014°22'10 9.8
2016-Feb-06 08:34N 67°26' E 014°35'3 0.2
2016-Feb-05 17:33N 67°29' E 014°37'1313.2
2016-Feb-05 16:33N 67°17' E 014°22'7 3.7
2016-Feb-05 14:34N 67°24' E 014°31'7 7.0
2016-Feb-05 13:33N 67°17' E 014°23'0 0.4
2016-Feb-05 12:33N 67°17' E 014°22'0 0.0
2016-Feb-05 11:33N 67°17' E 014°22'0 0.0
2016-Feb-05 10:33N 67°17' E 014°22'0 0.0
2016-Feb-05 09:33N 67°17' E 014°22'1212.3
2016-Feb-05 08:33N 67°28' E 014°36'  
Track history (hours):
 
Tides and Currents Weather Stations Pressure Air Temp Water Temp Dewpoint Dewpoint Depression Visibility Wind Speed Wind Dir Waves Ship Positions

Salten

Last reported at 2016-Feb-14 20:15 UTC. Time now 2016-Feb-14 21:08 UTC.
Position N 67°36' E 014°42'.

Length 41 m; draft 2 m.

Type: High speed craft. MMSI: 259387000.

Date/timePositionNaut miles runAvg speedWind from/ knotsBaromVisibWave heightAir tempDewpointWater temp
2016-Feb-14 20:15N 67°36' E 014°42'2028.6
2016-Feb-14 19:33N 67°17' E 014°22'0 0.0
2016-Feb-14 18:33N 67°17' E 014°22'7 0.3
2016-Feb-13 16:33N 67°24' E 014°31'7 7.4
2016-Feb-13 15:33N 67°17' E 014°22'0 0.0
2016-Feb-13 14:33N 67°17' E 014°22'0 0.0
2016-Feb-13 13:33N 67°17' E 014°22'0 0.0
2016-Feb-13 12:33N 67°17' E 014°22'0 0.0
2016-Feb-13 11:33N 67°17' E 014°22'1211.9
2016-Feb-13 10:31N 67°08' E 014°02'4414.5
2016-Feb-13 07:28N 66°31' E 013°00'27 1.8
2016-Feb-12 16:24N 66°54' E 013°31'1720.2
2016-Feb-12 15:34N 67°08' E 013°58'1313.3
2016-Feb-12 14:33N 67°17' E 014°22'0 0.0
2016-Feb-12 13:33N 67°17' E 014°22'0 0.0
2016-Feb-12 12:33N 67°17' E 014°22'0 0.0
2016-Feb-12 11:34N 67°17' E 014°22'1212.5
2016-Feb-12 10:33N 67°08' E 013°60'4414.6
2016-Feb-12 07:31N 66°31' E 013°00'27 1.8
2016-Feb-11 16:20N 66°55' E 013°30'1822.6
2016-Feb-11 15:33N 67°07' E 014°02'1212.4
2016-Feb-11 14:33N 67°17' E 014°22'0 0.0
2016-Feb-11 13:33N 67°17' E 014°22'0 0.0
2016-Feb-11 12:33N 67°17' E 014°22'0 0.0
2016-Feb-11 11:33N 67°17' E 014°22'1211.9
2016-Feb-11 10:33N 67°09' E 014°00'4715.3
2016-Feb-11 07:29N 66°29' E 012°58'29 1.9
2016-Feb-10 16:18N 66°55' E 013°30'1520.4
2016-Feb-10 15:34N 67°06' E 013°56'1515.2
2016-Feb-10 14:33N 67°17' E 014°22'0 0.0
2016-Feb-10 13:33N 67°17' E 014°22'0 0.0
2016-Feb-10 12:33N 67°17' E 014°22'0 0.0
2016-Feb-10 11:33N 67°17' E 014°22'0 0.0
2016-Feb-10 10:33N 67°17' E 014°22'0 0.0
2016-Feb-10 09:33N 67°17' E 014°22'8 8.4
2016-Feb-10 08:34N 67°25' E 014°31'1 0.1
2016-Feb-09 16:34N 67°23' E 014°30'7 7.1
2016-Feb-09 15:34N 67°17' E 014°22'0 0.0
2016-Feb-09 14:34N 67°17' E 014°22'0 0.0
2016-Feb-09 13:33N 67°17' E 014°22'0 0.0
2016-Feb-09 12:33N 67°17' E 014°22'0 0.0
2016-Feb-09 11:34N 67°17' E 014°22'7 7.3
2016-Feb-09 10:34N 67°12' E 014°09'4916.2
2016-Feb-09 07:32N 66°32' E 012°58'9 0.7
2016-Feb-08 19:09N 66°24' E 012°49'3511.5
2016-Feb-08 16:08N 66°54' E 013°32'1526.1
2016-Feb-08 15:34N 67°05' E 013°56'1515.4
2016-Feb-08 14:33N 67°17' E 014°22'0 0.0
2016-Feb-08 13:33N 67°17' E 014°22'0 0.0
2016-Feb-08 12:33N 67°17' E 014°22'0 0.0
2016-Feb-08 11:33N 67°17' E 014°22'7 6.6
2016-Feb-08 10:34N 67°13' E 014°10'5316.3
2016-Feb-08 07:19N 66°28' E 012°57'8 0.5
2016-Feb-07 16:14N 66°21' E 012°51'3713.2
2016-Feb-07 13:23N 66°55' E 013°30'1720.5
2016-Feb-07 12:33N 67°08' E 013°58'1312.9
2016-Feb-07 11:33N 67°17' E 014°22'0 0.0
2016-Feb-07 10:33N 67°17' E 014°22'0 0.0
2016-Feb-07 09:33N 67°17' E 014°22'0 0.0
2016-Feb-07 08:33N 67°17' E 014°22'0 0.0
2016-Feb-07 07:33N 67°17' E 014°22'0 0.0
2016-Feb-07 06:33N 67°17' E 014°22'0 0.0
2016-Feb-07 05:33N 67°17' E 014°22'0 0.0
2016-Feb-07 04:33N 67°17' E 014°22'0 0.0
2016-Feb-07 03:33N 67°17' E 014°22'0 0.0
2016-Feb-07 02:33N 67°17' E 014°22'0 0.0
2016-Feb-07 01:33N 67°17' E 014°22'0 0.0
2016-Feb-07 00:33N 67°17' E 014°22'0 0.0
2016-Feb-06 23:33N 67°17' E 014°22'0 0.0
2016-Feb-06 22:33N 67°17' E 014°22'0 0.0
2016-Feb-06 21:33N 67°17' E 014°22'0 0.0
2016-Feb-06 20:33N 67°17' E 014°22'0 0.0
2016-Feb-06 19:33N 67°17' E 014°22'0 0.0
2016-Feb-06 18:33N 67°17' E 014°22'0 0.0
2016-Feb-06 17:33N 67°17' E 014°22'0 0.0
2016-Feb-06 16:33N 67°17' E 014°22'0 0.0
2016-Feb-06 15:33N 67°17' E 014°22'0 0.0
2016-Feb-06 14:33N 67°17' E 014°22'0 0.0
2016-Feb-06 13:33N 67°17' E 014°22'0 0.0
2016-Feb-06 12:33N 67°17' E 014°22'0 0.0
2016-Feb-06 11:33N 67°17' E 014°22'0 0.0
2016-Feb-06 10:33N 67°17' E 014°22'0 0.0
2016-Feb-06 09:34N 67°17' E 014°22'10 9.8
2016-Feb-06 08:34N 67°26' E 014°35'3 0.2
2016-Feb-05 17:33N 67°29' E 014°37'1313.2
2016-Feb-05 16:33N 67°17' E 014°22'7 3.7
2016-Feb-05 14:34N 67°24' E 014°31'7 7.0
2016-Feb-05 13:33N 67°17' E 014°23'0 0.4
2016-Feb-05 12:33N 67°17' E 014°22'0 0.0
2016-Feb-05 11:33N 67°17' E 014°22'0 0.0
2016-Feb-05 10:33N 67°17' E 014°22'0 0.0
2016-Feb-05 09:33N 67°17' E 014°22'1212.3
2016-Feb-05 08:33N 67°28' E 014°36'  

Dump ship's entire track history